Lyon Station, Pennsylvania
Current Conditions -  °F | °C
As of 11:15 AM on Sunday 25 Jan 2015 (Local Time) from KXLL Reporting Station
Overcast Overcast  
Wind Chill:   Ceiling: 3400
Heat Index:   Visibility: 10mi
Dew Point: -1°   Wind: 8mph
Humidity: 75%   Direction: 240°WSW
Pressure: 29.8"   Gusts: NA
Location:  40.51°N, 75.74°W
Report Text: KXLL 251615Z AUTO 24007KT 10SM BKN034 OVC045 03/M01 A2980 RMK AO2
Loading
Personal Weather Stations






























Interactive Weather Map New forecast layout! Learn more

10-Day Weather Forecast

Advertisements
Track Severe Weather on mobile